createdAt,value
2023-04-17T00:02:19.474Z,7.82
2023-04-17T00:07:22.895Z,8.80
2023-04-17T00:12:25.567Z,8.50
2023-04-17T00:17:28.213Z,8.10
2023-04-17T00:22:30.898Z,9.05
2023-04-17T00:27:33.615Z,9.32
2023-04-17T00:32:36.434Z,9.57
2023-04-17T00:37:39.140Z,9.27
2023-04-17T00:42:41.847Z,9.60
2023-04-17T00:47:44.632Z,10.00
2023-04-17T00:52:48.206Z,9.43
2023-04-17T00:57:51.221Z,8.93
2023-04-17T01:02:56.888Z,9.25
2023-04-17T01:07:59.953Z,9.47
2023-04-17T01:13:09.298Z,9.75
2023-04-17T01:18:14.304Z,10.32
2023-04-17T01:23:16.890Z,10.53
2023-04-17T01:28:19.801Z,11.25
2023-04-17T01:33:22.634Z,10.37
2023-04-17T01:38:25.283Z,9.90
2023-04-17T01:43:27.849Z,8.63
2023-04-17T01:48:30.400Z,10.30
2023-04-17T01:53:34.336Z,10.25
2023-04-17T01:58:37.385Z,9.10
2023-04-17T02:03:40.334Z,9.52
2023-04-17T02:08:43.057Z,8.77
2023-04-17T02:13:45.769Z,10.67
2023-04-17T02:18:49.665Z,10.10
2023-04-17T02:23:52.180Z,11.00
2023-04-17T02:28:55.010Z,10.70
2023-04-17T02:33:58.742Z,10.50
2023-04-17T02:39:02.479Z,10.67
2023-04-17T02:44:05.248Z,11.25
2023-04-17T02:49:08.443Z,12.17
2023-04-17T02:54:11.946Z,10.70
2023-04-17T02:59:14.766Z,10.77
2023-04-17T03:04:17.450Z,11.03
2023-04-17T03:09:22.580Z,11.60
2023-04-17T03:14:27.003Z,11.40
2023-04-17T03:19:29.579Z,11.35
2023-04-17T03:24:32.188Z,11.35
2023-04-17T03:29:36.421Z,11.60
2023-04-17T03:34:39.416Z,11.15
2023-04-17T03:39:42.156Z,10.30
2023-04-17T03:44:44.931Z,12.48
2023-04-17T03:49:48.039Z,11.93
2023-04-17T03:54:51.118Z,10.77
2023-04-17T03:59:54.456Z,11.88
2023-04-17T04:04:57.723Z,10.93
2023-04-17T04:10:00.409Z,12.25
2023-04-17T04:15:03.589Z,10.95
2023-04-17T04:20:09.435Z,10.93
2023-04-17T04:25:12.579Z,13.48
2023-04-17T04:30:36.142Z,11.37
2023-04-17T04:35:48.392Z,13.10
2023-04-17T04:40:52.748Z,12.05
2023-04-17T04:45:56.814Z,12.60
2023-04-17T04:51:03.180Z,12.93
2023-04-17T04:56:06.709Z,14.17
2023-04-17T05:01:11.110Z,13.68
2023-04-17T05:06:20.868Z,14.40
2023-04-17T05:11:28.630Z,14.57
2023-04-17T05:16:33.217Z,13.52
2023-04-17T05:21:36.517Z,14.13
2023-04-17T05:26:39.608Z,13.88
2023-04-17T05:31:43.555Z,12.65
2023-04-17T05:36:59.573Z,13.63
2023-04-17T05:42:02.628Z,15.35
2023-04-17T05:47:05.874Z,15.37
2023-04-17T05:52:08.952Z,16.50
2023-04-17T05:57:16.257Z,14.82
2023-04-17T06:02:19.182Z,14.97
2023-04-17T06:07:22.107Z,14.48
2023-04-17T06:12:25.855Z,14.20
2023-04-17T06:17:29.032Z,14.60
2023-04-17T06:22:33.272Z,15.23
2023-04-17T06:27:36.935Z,13.73
2023-04-17T06:32:44.064Z,13.60
2023-04-17T06:37:47.095Z,14.47
2023-04-17T06:42:49.983Z,11.95
2023-04-17T06:47:57.580Z,14.15
2023-04-17T06:53:00.779Z,12.40
2023-04-17T06:58:04.380Z,11.88
2023-04-17T07:03:08.202Z,13.27
2023-04-17T07:08:11.007Z,11.68
2023-04-17T07:13:13.743Z,11.63
2023-04-17T07:18:16.944Z,13.23
2023-04-17T07:23:19.824Z,14.05
2023-04-17T07:28:22.645Z,12.83
2023-04-17T07:33:25.652Z,12.13
2023-04-17T07:38:28.349Z,11.63
2023-04-17T07:43:31.050Z,12.47
2023-04-17T07:48:33.982Z,11.90
2023-04-17T07:53:37.632Z,12.03
2023-04-17T07:58:40.363Z,12.10
2023-04-17T08:03:45.232Z,11.30
2023-04-17T08:08:48.171Z,13.43
2023-04-17T08:13:50.965Z,13.05
2023-04-17T08:18:53.737Z,11.53
2023-04-17T08:23:56.514Z,11.73
2023-04-17T08:29:01.948Z,11.18
2023-04-17T08:34:13.582Z,12.13
2023-04-17T08:39:17.444Z,11.85
2023-04-17T08:44:24.160Z,13.07
2023-04-17T08:49:31.092Z,9.95
2023-04-17T08:54:35.486Z,11.10
2023-04-17T08:59:38.209Z,11.37
2023-04-17T09:04:42.992Z,10.98
2023-04-17T09:09:57.323Z,9.93
2023-04-17T09:14:59.997Z,10.98
2023-04-17T09:20:09.437Z,11.85
2023-04-17T09:25:20.274Z,11.53
2023-04-17T09:30:27.293Z,11.90
2023-04-17T09:35:30.370Z,12.30
2023-04-17T09:40:42.032Z,12.82
2023-04-17T09:45:46.045Z,12.82
2023-04-17T09:50:49.660Z,14.00
2023-04-17T09:55:53.618Z,12.77
2023-04-17T10:00:56.803Z,10.50
2023-04-17T10:06:01.224Z,12.07
2023-04-17T10:11:06.712Z,10.50
2023-04-17T10:16:09.665Z,12.47
2023-04-17T10:21:23.471Z,11.25
2023-04-17T10:26:26.469Z,11.90
2023-04-17T10:32:07.464Z,10.85
2023-04-17T10:37:15.655Z,11.10
2023-04-17T10:42:20.557Z,10.67
2023-04-17T10:47:30.273Z,10.40
2023-04-17T10:52:33.298Z,9.17
2023-04-17T10:57:55.282Z,8.80
2023-04-17T11:02:58.633Z,7.60
2023-04-17T11:08:01.621Z,8.07
2023-04-17T11:13:04.989Z,8.20
2023-04-17T11:18:09.123Z,6.03
2023-04-17T11:23:11.864Z,8.32
2023-04-17T11:28:14.685Z,6.57
2023-04-17T11:33:17.429Z,5.60
2023-04-17T11:38:22.359Z,6.93
2023-04-17T11:43:26.961Z,6.17
2023-04-17T11:48:32.636Z,5.55
2023-04-17T11:53:36.730Z,6.07
2023-04-17T11:58:53.929Z,5.90
2023-04-17T12:03:58.337Z,5.55
2023-04-17T12:09:01.341Z,5.47
2023-04-17T12:14:11.910Z,6.00
2023-04-17T12:19:16.973Z,4.85
2023-04-17T12:24:21.083Z,4.83
2023-04-17T12:29:36.104Z,5.50
2023-04-17T12:34:45.435Z,5.33
2023-04-17T12:39:48.463Z,5.50
2023-04-17T12:44:51.628Z,5.32
2023-04-17T12:49:54.385Z,5.07
2023-04-17T12:55:00.417Z,5.20
2023-04-17T13:00:06.313Z,5.23
2023-04-17T13:05:09.312Z,5.53
2023-04-17T13:10:12.152Z,5.43
2023-04-17T13:15:15.813Z,5.07
2023-04-17T13:20:18.598Z,3.85
2023-04-17T13:25:21.783Z,5.53
2023-04-17T13:30:26.554Z,4.68
2023-04-17T13:35:29.602Z,5.38
2023-04-17T13:40:32.391Z,4.43
2023-04-17T13:45:35.397Z,4.55
2023-04-17T13:50:38.387Z,4.90
2023-04-17T13:55:41.183Z,4.57
2023-04-17T14:00:44.012Z,5.20
2023-04-17T14:05:46.745Z,5.17
2023-04-17T14:10:49.412Z,5.20
2023-04-17T14:15:53.978Z,4.60
2023-04-17T14:20:57.049Z,3.88
2023-04-17T14:26:00.032Z,3.63
2023-04-17T14:31:02.785Z,3.37
2023-04-17T14:36:06.114Z,4.05
2023-04-17T14:41:09.079Z,4.00
2023-04-17T14:46:11.911Z,4.28
2023-04-17T14:51:15.413Z,3.45
2023-04-17T14:56:18.166Z,3.17
2023-04-17T15:01:20.945Z,3.70
2023-04-17T15:06:23.924Z,4.93
2023-04-17T15:11:27.181Z,4.50
2023-04-17T15:16:31.136Z,4.80
2023-04-17T15:21:34.603Z,4.40
2023-04-17T15:26:38.118Z,4.53
2023-04-17T15:31:41.357Z,3.67
2023-04-17T15:36:45.269Z,3.92
2023-04-17T15:41:49.043Z,2.50
2023-04-17T15:46:51.870Z,2.40
2023-04-17T15:51:54.731Z,2.70
2023-04-17T15:56:57.778Z,2.57
2023-04-17T16:02:00.980Z,2.25
2023-04-17T16:07:04.295Z,3.15
2023-04-17T16:12:10.078Z,3.03
2023-04-17T16:17:12.974Z,3.17
2023-04-17T16:22:15.875Z,3.13
2023-04-17T16:27:19.035Z,2.47
2023-04-17T16:32:24.811Z,2.72
2023-04-17T16:37:27.561Z,3.07
2023-04-17T16:42:30.423Z,3.95
2023-04-17T16:47:33.430Z,3.40
2023-04-17T16:52:36.240Z,3.13
2023-04-17T16:57:40.920Z,2.40
2023-04-17T17:02:44.124Z,2.40
2023-04-17T17:07:47.378Z,2.80
2023-04-17T17:12:50.155Z,2.47
2023-04-17T17:17:53.070Z,2.63
2023-04-17T17:22:56.034Z,2.42
2023-04-17T17:27:59.026Z,2.70
2023-04-17T17:33:02.036Z,2.08
2023-04-17T17:38:05.085Z,2.50
2023-04-17T17:43:08.205Z,2.35
2023-04-17T17:48:11.097Z,2.60
2023-04-17T17:53:14.417Z,2.60
2023-04-17T17:58:17.289Z,2.75
2023-04-17T18:03:21.374Z,2.90
2023-04-17T18:08:24.194Z,2.88
2023-04-17T18:13:27.096Z,3.50
2023-04-17T18:18:29.819Z,2.80
2023-04-17T18:23:32.616Z,2.75
2023-04-17T18:28:35.364Z,2.97
2023-04-17T18:33:38.122Z,2.88
2023-04-17T18:38:41.040Z,3.33
2023-04-17T18:43:43.777Z,3.27
2023-04-17T18:48:46.657Z,2.67
2023-04-17T18:53:50.532Z,3.03
2023-04-17T18:58:53.289Z,3.00
2023-04-17T19:03:56.101Z,3.00
2023-04-17T19:08:59.107Z,1.67
2023-04-17T19:14:02.144Z,3.28
2023-04-17T19:19:05.930Z,2.80
2023-04-17T19:24:08.900Z,2.55
2023-04-17T19:29:11.921Z,2.78
2023-04-17T19:34:14.974Z,2.90
2023-04-17T19:39:18.175Z,2.42
2023-04-17T19:44:21.095Z,2.97
2023-04-17T19:49:23.769Z,3.45
2023-04-17T19:54:27.631Z,3.25
2023-04-17T19:59:30.514Z,3.30
2023-04-17T20:04:33.450Z,3.83
2023-04-17T20:09:36.164Z,4.70
2023-04-17T20:14:39.005Z,4.50
2023-04-17T20:19:41.733Z,3.72
2023-04-17T20:24:44.528Z,4.03
2023-04-17T20:29:47.481Z,4.20
2023-04-17T20:34:50.334Z,4.20
2023-04-17T20:39:53.402Z,2.83
2023-04-17T20:44:56.361Z,4.30
2023-04-17T20:49:59.080Z,3.03
2023-04-17T20:55:02.021Z,4.32
2023-04-17T21:00:06.544Z,4.50
2023-04-17T21:05:09.970Z,4.32
2023-04-17T21:10:12.667Z,4.75
2023-04-17T21:15:15.592Z,5.00
2023-04-17T21:20:18.484Z,3.22
2023-04-17T21:25:21.829Z,5.57
2023-04-17T21:30:27.135Z,4.75
2023-04-17T21:35:29.973Z,4.95
2023-04-17T21:40:33.677Z,6.00
2023-04-17T21:45:36.507Z,5.28
2023-04-17T21:50:41.540Z,4.47
2023-04-17T21:55:44.304Z,4.93
2023-04-17T22:00:47.023Z,5.10
2023-04-17T22:05:51.018Z,3.77
2023-04-17T22:10:53.667Z,2.15
2023-04-17T22:15:58.491Z,5.20
2023-04-17T22:21:01.458Z,4.18
2023-04-17T22:26:04.501Z,4.03
2023-04-17T22:31:07.406Z,5.00
2023-04-17T22:36:10.344Z,4.65
2023-04-17T22:41:13.079Z,5.20
2023-04-17T22:46:16.614Z,4.40
2023-04-17T22:51:19.476Z,5.60
2023-04-17T22:56:22.257Z,3.90
2023-04-17T23:01:24.972Z,5.20
2023-04-17T23:06:28.346Z,4.50
2023-04-17T23:11:34.762Z,5.07
2023-04-17T23:16:37.532Z,5.28
2023-04-17T23:21:40.612Z,5.00
2023-04-17T23:26:43.334Z,4.88
2023-04-17T23:31:45.989Z,5.03
2023-04-17T23:36:48.783Z,5.28
2023-04-17T23:41:51.470Z,5.80
2023-04-17T23:46:54.142Z,5.13
2023-04-17T23:51:56.995Z,5.07
2023-04-17T23:56:59.663Z,5.63
